sensor_id;sensor_type;location;lat;lon;timestamp;pressure;altitude;pressure_sealevel;temperature
15575;BMP180;7888;46.748;8.102;2023-03-14T00:01:16;93043.00;;;16.40
15575;BMP180;7888;46.748;8.102;2023-03-14T00:03:42;93034.00;;;16.40
15575;BMP180;7888;46.748;8.102;2023-03-14T00:06:10;93034.00;;;16.30
15575;BMP180;7888;46.748;8.102;2023-03-14T00:08:37;93030.00;;;16.30
15575;BMP180;7888;46.748;8.102;2023-03-14T00:11:13;93035.00;;;16.20
15575;BMP180;7888;46.748;8.102;2023-03-14T00:13:39;93040.00;;;16.30
15575;BMP180;7888;46.748;8.102;2023-03-14T00:16:13;93032.00;;;16.20
15575;BMP180;7888;46.748;8.102;2023-03-14T00:18:39;93039.00;;;16.30
15575;BMP180;7888;46.748;8.102;2023-03-14T00:21:08;93034.00;;;16.20
15575;BMP180;7888;46.748;8.102;2023-03-14T00:23:37;93030.00;;;16.20
15575;BMP180;7888;46.748;8.102;2023-03-14T00:26:09;93032.00;;;16.20
15575;BMP180;7888;46.748;8.102;2023-03-14T00:28:36;93040.00;;;16.10
15575;BMP180;7888;46.748;8.102;2023-03-14T00:31:07;93043.00;;;16.10
15575;BMP180;7888;46.748;8.102;2023-03-14T00:33:34;93035.00;;;16.10
15575;BMP180;7888;46.748;8.102;2023-03-14T00:36:04;93051.00;;;16.00
15575;BMP180;7888;46.748;8.102;2023-03-14T00:38:32;93041.00;;;16.00
15575;BMP180;7888;46.748;8.102;2023-03-14T00:40:58;93031.00;;;15.90
15575;BMP180;7888;46.748;8.102;2023-03-14T00:43:24;93034.00;;;15.80
15575;BMP180;7888;46.748;8.102;2023-03-14T00:45:52;93035.00;;;15.70
15575;BMP180;7888;46.748;8.102;2023-03-14T00:48:19;93040.00;;;15.60
15575;BMP180;7888;46.748;8.102;2023-03-14T00:50:46;93054.00;;;15.60
15575;BMP180;7888;46.748;8.102;2023-03-14T00:53:12;93049.00;;;15.60
15575;BMP180;7888;46.748;8.102;2023-03-14T00:55:40;93035.00;;;15.50
15575;BMP180;7888;46.748;8.102;2023-03-14T00:58:09;93029.00;;;15.50
15575;BMP180;7888;46.748;8.102;2023-03-14T01:00:35;93027.00;;;15.50
15575;BMP180;7888;46.748;8.102;2023-03-14T01:03:01;93021.00;;;15.40
15575;BMP180;7888;46.748;8.102;2023-03-14T01:05:28;93016.00;;;15.40
15575;BMP180;7888;46.748;8.102;2023-03-14T01:07:55;93011.00;;;15.30
15575;BMP180;7888;46.748;8.102;2023-03-14T01:10:21;93018.00;;;15.30
15575;BMP180;7888;46.748;8.102;2023-03-14T01:12:48;93016.00;;;15.30
15575;BMP180;7888;46.748;8.102;2023-03-14T01:15:14;93004.00;;;15.20
15575;BMP180;7888;46.748;8.102;2023-03-14T01:17:41;93018.00;;;15.10
15575;BMP180;7888;46.748;8.102;2023-03-14T01:20:10;93015.00;;;15.00
15575;BMP180;7888;46.748;8.102;2023-03-14T01:22:38;92992.00;;;14.80
15575;BMP180;7888;46.748;8.102;2023-03-14T01:25:11;92979.00;;;14.60
15575;BMP180;7888;46.748;8.102;2023-03-14T01:27:37;92977.00;;;14.40
15575;BMP180;7888;46.748;8.102;2023-03-14T01:30:04;92959.00;;;14.20
15575;BMP180;7888;46.748;8.102;2023-03-14T01:32:30;92939.00;;;14.10
15575;BMP180;7888;46.748;8.102;2023-03-14T01:34:56;92924.00;;;14.00
15575;BMP180;7888;46.748;8.102;2023-03-14T01:37:22;92916.00;;;13.90
15575;BMP180;7888;46.748;8.102;2023-03-14T01:39:48;92923.00;;;13.80
15575;BMP180;7888;46.748;8.102;2023-03-14T01:42:15;92913.00;;;13.60
15575;BMP180;7888;46.748;8.102;2023-03-14T01:45:00;92917.00;;;13.30
15575;BMP180;7888;46.748;8.102;2023-03-14T01:47:27;92901.00;;;13.20
15575;BMP180;7888;46.748;8.102;2023-03-14T01:53:00;92898.00;;;12.90
15575;BMP180;7888;46.748;8.102;2023-03-14T01:55:25;92884.00;;;12.80
15575;BMP180;7888;46.748;8.102;2023-03-14T01:58:00;92884.00;;;12.70
15575;BMP180;7888;46.748;8.102;2023-03-14T02:00:28;92882.00;;;12.70
15575;BMP180;7888;46.748;8.102;2023-03-14T02:03:00;92882.00;;;12.60
15575;BMP180;7888;46.748;8.102;2023-03-14T02:05:32;92874.00;;;12.60
15575;BMP180;7888;46.748;8.102;2023-03-14T02:08:00;92883.00;;;12.60
15575;BMP180;7888;46.748;8.102;2023-03-14T02:10:38;92875.00;;;12.60
15575;BMP180;7888;46.748;8.102;2023-03-14T02:13:05;92870.00;;;12.70
15575;BMP180;7888;46.748;8.102;2023-03-14T02:15:32;92854.00;;;12.80
15575;BMP180;7888;46.748;8.102;2023-03-14T02:18:00;92852.00;;;12.80
15575;BMP180;7888;46.748;8.102;2023-03-14T02:20:51;92846.00;;;12.80
15575;BMP180;7888;46.748;8.102;2023-03-14T02:24:32;92835.00;;;12.80
15575;BMP180;7888;46.748;8.102;2023-03-14T02:26:42;92829.00;;;12.80
15575;BMP180;7888;46.748;8.102;2023-03-14T02:29:09;92820.00;;;12.80
15575;BMP180;7888;46.748;8.102;2023-03-14T02:31:35;92824.00;;;12.90
15575;BMP180;7888;46.748;8.102;2023-03-14T02:34:02;92832.00;;;12.90
15575;BMP180;7888;46.748;8.102;2023-03-14T02:36:30;92837.00;;;12.90
15575;BMP180;7888;46.748;8.102;2023-03-14T02:39:13;92839.00;;;12.90
15575;BMP180;7888;46.748;8.102;2023-03-14T02:41:41;92822.00;;;13.00
15575;BMP180;7888;46.748;8.102;2023-03-14T02:44:08;92820.00;;;13.00
15575;BMP180;7888;46.748;8.102;2023-03-14T02:46:34;92820.00;;;13.00
15575;BMP180;7888;46.748;8.102;2023-03-14T02:49:08;92809.00;;;13.00
15575;BMP180;7888;46.748;8.102;2023-03-14T02:51:35;92803.00;;;13.10
15575;BMP180;7888;46.748;8.102;2023-03-14T02:54:03;92799.00;;;13.10
15575;BMP180;7888;46.748;8.102;2023-03-14T02:56:29;92790.00;;;13.10
15575;BMP180;7888;46.748;8.102;2023-03-14T02:58:54;92794.00;;;13.10
15575;BMP180;7888;46.748;8.102;2023-03-14T03:01:20;92786.00;;;13.10
15575;BMP180;7888;46.748;8.102;2023-03-14T03:03:46;92790.00;;;13.10
15575;BMP180;7888;46.748;8.102;2023-03-14T03:06:12;92783.00;;;13.10
15575;BMP180;7888;46.748;8.102;2023-03-14T03:08:38;92784.00;;;13.10
15575;BMP180;7888;46.748;8.102;2023-03-14T03:11:05;92784.00;;;13.10
15575;BMP180;7888;46.748;8.102;2023-03-14T03:13:31;92775.00;;;13.20
15575;BMP180;7888;46.748;8.102;2023-03-14T03:15:57;92774.00;;;13.20
15575;BMP180;7888;46.748;8.102;2023-03-14T03:18:23;92763.00;;;13.20
15575;BMP180;7888;46.748;8.102;2023-03-14T03:20:48;92765.00;;;13.20
15575;BMP180;7888;46.748;8.102;2023-03-14T03:23:14;92764.00;;;13.20
15575;BMP180;7888;46.748;8.102;2023-03-14T03:25:40;92752.00;;;13.20
15575;BMP180;7888;46.748;8.102;2023-03-14T03:28:06;92752.00;;;13.10
15575;BMP180;7888;46.748;8.102;2023-03-14T03:30:40;92756.00;;;12.90
15575;BMP180;7888;46.748;8.102;2023-03-14T03:33:06;92751.00;;;12.90
15575;BMP180;7888;46.748;8.102;2023-03-14T03:35:32;92744.00;;;12.80
15575;BMP180;7888;46.748;8.102;2023-03-14T03:37:58;92753.00;;;12.80
15575;BMP180;7888;46.748;8.102;2023-03-14T03:40:24;92749.00;;;12.80
15575;BMP180;7888;46.748;8.102;2023-03-14T03:42:51;92758.00;;;12.80
15575;BMP180;7888;46.748;8.102;2023-03-14T03:45:17;92747.00;;;12.80
15575;BMP180;7888;46.748;8.102;2023-03-14T03:47:42;92747.00;;;12.80
15575;BMP180;7888;46.748;8.102;2023-03-14T03:50:09;92739.00;;;12.80
15575;BMP180;7888;46.748;8.102;2023-03-14T03:52:35;92745.00;;;12.80
15575;BMP180;7888;46.748;8.102;2023-03-14T03:55:01;92756.00;;;12.80
15575;BMP180;7888;46.748;8.102;2023-03-14T03:57:26;92765.00;;;12.70
15575;BMP180;7888;46.748;8.102;2023-03-14T03:59:52;92756.00;;;12.60
15575;BMP180;7888;46.748;8.102;2023-03-14T04:02:18;92754.00;;;12.60
15575;BMP180;7888;46.748;8.102;2023-03-14T04:04:44;92760.00;;;12.50
15575;BMP180;7888;46.748;8.102;2023-03-14T04:07:09;92737.00;;;12.50
15575;BMP180;7888;46.748;8.102;2023-03-14T04:09:37;92725.00;;;12.50
15575;BMP180;7888;46.748;8.102;2023-03-14T04:12:03;92712.00;;;12.50
15575;BMP180;7888;46.748;8.102;2023-03-14T04:14:29;92711.00;;;12.50
15575;BMP180;7888;46.748;8.102;2023-03-14T04:16:55;92710.00;;;12.50
15575;BMP180;7888;46.748;8.102;2023-03-14T04:19:21;92706.00;;;12.50
15575;BMP180;7888;46.748;8.102;2023-03-14T04:21:46;92706.00;;;12.50
15575;BMP180;7888;46.748;8.102;2023-03-14T04:24:13;92707.00;;;12.50
15575;BMP180;7888;46.748;8.102;2023-03-14T04:26:38;92704.00;;;12.50
15575;BMP180;7888;46.748;8.102;2023-03-14T04:29:04;92702.00;;;12.50
15575;BMP180;7888;46.748;8.102;2023-03-14T04:31:30;92706.00;;;12.40
15575;BMP180;7888;46.748;8.102;2023-03-14T04:33:56;92689.00;;;12.40
15575;BMP180;7888;46.748;8.102;2023-03-14T04:36:22;92674.00;;;12.40
15575;BMP180;7888;46.748;8.102;2023-03-14T04:38:47;92669.00;;;12.40
15575;BMP180;7888;46.748;8.102;2023-03-14T04:41:13;92665.00;;;12.30
15575;BMP180;7888;46.748;8.102;2023-03-14T04:43:39;92666.00;;;12.30
15575;BMP180;7888;46.748;8.102;2023-03-14T04:46:05;92647.00;;;12.30
15575;BMP180;7888;46.748;8.102;2023-03-14T04:48:31;92662.00;;;12.30
15575;BMP180;7888;46.748;8.102;2023-03-14T04:50:57;92654.00;;;12.20
15575;BMP180;7888;46.748;8.102;2023-03-14T04:53:23;92644.00;;;12.20
15575;BMP180;7888;46.748;8.102;2023-03-14T04:55:51;92641.00;;;12.10
15575;BMP180;7888;46.748;8.102;2023-03-14T04:58:18;92640.00;;;12.10
15575;BMP180;7888;46.748;8.102;2023-03-14T05:00:44;92639.00;;;12.00
15575;BMP180;7888;46.748;8.102;2023-03-14T05:03:10;92631.00;;;12.10
15575;BMP180;7888;46.748;8.102;2023-03-14T05:05:36;92646.00;;;12.10
15575;BMP180;7888;46.748;8.102;2023-03-14T05:08:02;92640.00;;;12.10
15575;BMP180;7888;46.748;8.102;2023-03-14T05:10:28;92625.00;;;12.10
15575;BMP180;7888;46.748;8.102;2023-03-14T05:12:54;92621.00;;;12.10
15575;BMP180;7888;46.748;8.102;2023-03-14T05:15:20;92631.00;;;12.20
15575;BMP180;7888;46.748;8.102;2023-03-14T05:17:45;92617.00;;;12.20
15575;BMP180;7888;46.748;8.102;2023-03-14T05:20:12;92623.00;;;12.20
15575;BMP180;7888;46.748;8.102;2023-03-14T05:22:39;92607.00;;;12.20
15575;BMP180;7888;46.748;8.102;2023-03-14T05:25:06;92605.00;;;12.20
15575;BMP180;7888;46.748;8.102;2023-03-14T05:27:33;92592.00;;;12.30
15575;BMP180;7888;46.748;8.102;2023-03-14T05:29:59;92594.00;;;12.30
15575;BMP180;7888;46.748;8.102;2023-03-14T05:32:24;92600.00;;;12.30
15575;BMP180;7888;46.748;8.102;2023-03-14T05:34:50;92591.00;;;12.30
15575;BMP180;7888;46.748;8.102;2023-03-14T05:37:16;92587.00;;;12.20
15575;BMP180;7888;46.748;8.102;2023-03-14T05:39:42;92570.00;;;12.20
15575;BMP180;7888;46.748;8.102;2023-03-14T05:42:08;92565.00;;;12.20
15575;BMP180;7888;46.748;8.102;2023-03-14T05:44:33;92572.00;;;12.20
15575;BMP180;7888;46.748;8.102;2023-03-14T05:46:59;92552.00;;;12.20
15575;BMP180;7888;46.748;8.102;2023-03-14T05:49:25;92528.00;;;12.20
15575;BMP180;7888;46.748;8.102;2023-03-14T05:51:51;92535.00;;;12.20
15575;BMP180;7888;46.748;8.102;2023-03-14T05:54:17;92518.00;;;12.20
15575;BMP180;7888;46.748;8.102;2023-03-14T05:56:43;92529.00;;;12.20
15575;BMP180;7888;46.748;8.102;2023-03-14T05:59:09;92516.00;;;12.20
15575;BMP180;7888;46.748;8.102;2023-03-14T06:01:35;92521.00;;;12.20
15575;BMP180;7888;46.748;8.102;2023-03-14T06:04:01;92517.00;;;12.10
15575;BMP180;7888;46.748;8.102;2023-03-14T06:06:27;92533.00;;;12.10
15575;BMP180;7888;46.748;8.102;2023-03-14T06:08:53;92555.00;;;12.00
15575;BMP180;7888;46.748;8.102;2023-03-14T06:11:18;92536.00;;;12.00
15575;BMP180;7888;46.748;8.102;2023-03-14T06:13:44;92547.00;;;12.00
15575;BMP180;7888;46.748;8.102;2023-03-14T06:16:10;92541.00;;;12.00
15575;BMP180;7888;46.748;8.102;2023-03-14T06:18:36;92539.00;;;12.00
15575;BMP180;7888;46.748;8.102;2023-03-14T06:21:01;92543.00;;;12.00
15575;BMP180;7888;46.748;8.102;2023-03-14T06:23:27;92536.00;;;12.00
15575;BMP180;7888;46.748;8.102;2023-03-14T06:25:55;92538.00;;;11.90
15575;BMP180;7888;46.748;8.102;2023-03-14T06:28:21;92530.00;;;11.90
15575;BMP180;7888;46.748;8.102;2023-03-14T06:30:47;92530.00;;;11.90
15575;BMP180;7888;46.748;8.102;2023-03-14T06:33:13;92533.00;;;11.90
15575;BMP180;7888;46.748;8.102;2023-03-14T06:35:39;92519.00;;;11.90
15575;BMP180;7888;46.748;8.102;2023-03-14T06:38:05;92536.00;;;11.90
15575;BMP180;7888;46.748;8.102;2023-03-14T06:40:31;92525.00;;;11.90
15575;BMP180;7888;46.748;8.102;2023-03-14T06:42:57;92524.00;;;11.90
15575;BMP180;7888;46.748;8.102;2023-03-14T06:45:23;92529.00;;;11.90
15575;BMP180;7888;46.748;8.102;2023-03-14T06:47:49;92533.00;;;11.90
15575;BMP180;7888;46.748;8.102;2023-03-14T06:50:16;92531.00;;;11.90
15575;BMP180;7888;46.748;8.102;2023-03-14T06:52:41;92533.00;;;11.80
15575;BMP180;7888;46.748;8.102;2023-03-14T06:55:14;92530.00;;;11.90
15575;BMP180;7888;46.748;8.102;2023-03-14T06:57:40;92547.00;;;11.90
15575;BMP180;7888;46.748;8.102;2023-03-14T07:00:08;92547.00;;;11.90
15575;BMP180;7888;46.748;8.102;2023-03-14T07:02:34;92558.00;;;11.90
15575;BMP180;7888;46.748;8.102;2023-03-14T07:05:00;92553.00;;;11.90
15575;BMP180;7888;46.748;8.102;2023-03-14T07:07:27;92567.00;;;11.90
15575;BMP180;7888;46.748;8.102;2023-03-14T07:09:53;92582.00;;;12.00
15575;BMP180;7888;46.748;8.102;2023-03-14T07:12:19;92577.00;;;12.00
15575;BMP180;7888;46.748;8.102;2023-03-14T07:14:45;92584.00;;;12.00
15575;BMP180;7888;46.748;8.102;2023-03-14T07:17:11;92585.00;;;12.00
15575;BMP180;7888;46.748;8.102;2023-03-14T07:19:37;92592.00;;;12.00
15575;BMP180;7888;46.748;8.102;2023-03-14T07:22:05;92596.00;;;12.00
15575;BMP180;7888;46.748;8.102;2023-03-14T07:24:31;92590.00;;;12.00
15575;BMP180;7888;46.748;8.102;2023-03-14T07:26:56;92585.00;;;12.00
15575;BMP180;7888;46.748;8.102;2023-03-14T07:29:22;92585.00;;;12.00
15575;BMP180;7888;46.748;8.102;2023-03-14T07:31:48;92593.00;;;12.10
15575;BMP180;7888;46.748;8.102;2023-03-14T07:34:14;92597.00;;;12.10
15575;BMP180;7888;46.748;8.102;2023-03-14T07:36:40;92600.00;;;12.20
15575;BMP180;7888;46.748;8.102;2023-03-14T07:39:06;92600.00;;;12.20
15575;BMP180;7888;46.748;8.102;2023-03-14T07:41:33;92611.00;;;12.20
15575;BMP180;7888;46.748;8.102;2023-03-14T07:43:58;92603.00;;;12.30
15575;BMP180;7888;46.748;8.102;2023-03-14T07:46:24;92603.00;;;12.30
15575;BMP180;7888;46.748;8.102;2023-03-14T07:48:50;92606.00;;;12.40
15575;BMP180;7888;46.748;8.102;2023-03-14T07:51:16;92610.00;;;12.40
15575;BMP180;7888;46.748;8.102;2023-03-14T07:53:42;92619.00;;;12.40
15575;BMP180;7888;46.748;8.102;2023-03-14T07:56:08;92627.00;;;12.40
15575;BMP180;7888;46.748;8.102;2023-03-14T07:58:34;92624.00;;;12.40
15575;BMP180;7888;46.748;8.102;2023-03-14T08:01:00;92626.00;;;12.50
15575;BMP180;7888;46.748;8.102;2023-03-14T08:03:26;92628.00;;;12.50
15575;BMP180;7888;46.748;8.102;2023-03-14T08:05:52;92629.00;;;12.50
15575;BMP180;7888;46.748;8.102;2023-03-14T08:08:19;92632.00;;;12.60
15575;BMP180;7888;46.748;8.102;2023-03-14T08:10:45;92627.00;;;12.60
15575;BMP180;7888;46.748;8.102;2023-03-14T08:13:12;92631.00;;;12.70
15575;BMP180;7888;46.748;8.102;2023-03-14T08:15:38;92628.00;;;12.70
15575;BMP180;7888;46.748;8.102;2023-03-14T08:18:05;92627.00;;;12.70
15575;BMP180;7888;46.748;8.102;2023-03-14T08:20:31;92643.00;;;12.80
15575;BMP180;7888;46.748;8.102;2023-03-14T08:23:00;92660.00;;;12.80
15575;BMP180;7888;46.748;8.102;2023-03-14T08:25:28;92666.00;;;12.90
15575;BMP180;7888;46.748;8.102;2023-03-14T08:27:54;92667.00;;;13.00
15575;BMP180;7888;46.748;8.102;2023-03-14T08:30:23;92680.00;;;13.00
15575;BMP180;7888;46.748;8.102;2023-03-14T08:32:49;92679.00;;;13.10
15575;BMP180;7888;46.748;8.102;2023-03-14T08:35:16;92675.00;;;13.20
15575;BMP180;7888;46.748;8.102;2023-03-14T08:37:42;92672.00;;;13.20
15575;BMP180;7888;46.748;8.102;2023-03-14T08:40:08;92665.00;;;13.20
15575;BMP180;7888;46.748;8.102;2023-03-14T08:42:39;92680.00;;;13.10
15575;BMP180;7888;46.748;8.102;2023-03-14T08:45:08;92683.00;;;13.10
15575;BMP180;7888;46.748;8.102;2023-03-14T08:47:35;92683.00;;;13.10
15575;BMP180;7888;46.748;8.102;2023-03-14T08:50:01;92688.00;;;13.10
15575;BMP180;7888;46.748;8.102;2023-03-14T08:52:27;92690.00;;;13.20
15575;BMP180;7888;46.748;8.102;2023-03-14T08:54:53;92689.00;;;13.20
15575;BMP180;7888;46.748;8.102;2023-03-14T08:57:18;92691.00;;;13.20
15575;BMP180;7888;46.748;8.102;2023-03-14T08:59:44;92690.00;;;13.20
15575;BMP180;7888;46.748;8.102;2023-03-14T09:02:11;92687.00;;;13.30
15575;BMP180;7888;46.748;8.102;2023-03-14T09:04:37;92705.00;;;13.40
15575;BMP180;7888;46.748;8.102;2023-03-14T09:07:03;92692.00;;;13.40
15575;BMP180;7888;46.748;8.102;2023-03-14T09:09:30;92691.00;;;13.40
15575;BMP180;7888;46.748;8.102;2023-03-14T09:11:57;92695.00;;;13.30
15575;BMP180;7888;46.748;8.102;2023-03-14T09:14:23;92699.00;;;13.40
15575;BMP180;7888;46.748;8.102;2023-03-14T09:16:49;92702.00;;;13.40
15575;BMP180;7888;46.748;8.102;2023-03-14T09:19:16;92707.00;;;13.40
15575;BMP180;7888;46.748;8.102;2023-03-14T09:21:42;92706.00;;;13.50
15575;BMP180;7888;46.748;8.102;2023-03-14T09:24:07;92702.00;;;13.50
15575;BMP180;7888;46.748;8.102;2023-03-14T09:26:33;92718.00;;;13.50
15575;BMP180;7888;46.748;8.102;2023-03-14T09:28:59;92723.00;;;13.50
15575;BMP180;7888;46.748;8.102;2023-03-14T09:31:25;92714.00;;;13.50
15575;BMP180;7888;46.748;8.102;2023-03-14T09:33:51;92722.00;;;13.60
15575;BMP180;7888;46.748;8.102;2023-03-14T09:36:16;92713.00;;;13.60
15575;BMP180;7888;46.748;8.102;2023-03-14T09:38:42;92716.00;;;13.70
15575;BMP180;7888;46.748;8.102;2023-03-14T09:41:37;92706.00;;;13.70
15575;BMP180;7888;46.748;8.102;2023-03-14T09:44:19;92724.00;;;13.80
15575;BMP180;7888;46.748;8.102;2023-03-14T09:46:50;92744.00;;;13.80
15575;BMP180;7888;46.748;8.102;2023-03-14T09:49:26;92740.00;;;13.70
15575;BMP180;7888;46.748;8.102;2023-03-14T09:51:55;92736.00;;;13.70
15575;BMP180;7888;46.748;8.102;2023-03-14T09:54:44;92746.00;;;13.70
15575;BMP180;7888;46.748;8.102;2023-03-14T09:57:17;92751.00;;;13.70
15575;BMP180;7888;46.748;8.102;2023-03-14T09:59:46;92751.00;;;13.70
15575;BMP180;7888;46.748;8.102;2023-03-14T10:02:38;92757.00;;;13.70
15575;BMP180;7888;46.748;8.102;2023-03-14T10:05:17;92764.00;;;13.70
15575;BMP180;7888;46.748;8.102;2023-03-14T10:07:44;92762.00;;;13.80
15575;BMP180;7888;46.748;8.102;2023-03-14T10:10:21;92766.00;;;13.80
15575;BMP180;7888;46.748;8.102;2023-03-14T10:12:58;92780.00;;;13.90
15575;BMP180;7888;46.748;8.102;2023-03-14T10:15:32;92783.00;;;13.90
15575;BMP180;7888;46.748;8.102;2023-03-14T10:18:04;92786.00;;;14.00
15575;BMP180;7888;46.748;8.102;2023-03-14T10:20:44;92786.00;;;14.00
15575;BMP180;7888;46.748;8.102;2023-03-14T10:28:46;92795.00;;;14.10
15575;BMP180;7888;46.748;8.102;2023-03-14T10:31:14;92792.00;;;14.20
15575;BMP180;7888;46.748;8.102;2023-03-14T10:33:41;92808.00;;;14.20
15575;BMP180;7888;46.748;8.102;2023-03-14T10:36:24;92813.00;;;14.10
15575;BMP180;7888;46.748;8.102;2023-03-14T10:39:28;92820.00;;;14.10
15575;BMP180;7888;46.748;8.102;2023-03-14T10:42:11;92839.00;;;14.10
15575;BMP180;7888;46.748;8.102;2023-03-14T10:44:39;92844.00;;;14.00
15575;BMP180;7888;46.748;8.102;2023-03-14T10:47:16;92858.00;;;14.00
15575;BMP180;7888;46.748;8.102;2023-03-14T10:49:42;92843.00;;;14.00
15575;BMP180;7888;46.748;8.102;2023-03-14T10:52:23;92855.00;;;13.90
15575;BMP180;7888;46.748;8.102;2023-03-14T10:55:00;92858.00;;;13.90
15575;BMP180;7888;46.748;8.102;2023-03-14T10:57:27;92850.00;;;14.00
15575;BMP180;7888;46.748;8.102;2023-03-14T10:59:55;92853.00;;;13.90
15575;BMP180;7888;46.748;8.102;2023-03-14T11:05:36;92851.00;;;13.90
15575;BMP180;7888;46.748;8.102;2023-03-14T11:13:58;92875.00;;;13.90
15575;BMP180;7888;46.748;8.102;2023-03-14T11:22:39;92887.00;;;13.70
15575;BMP180;7888;46.748;8.102;2023-03-14T11:25:15;92888.00;;;13.70
15575;BMP180;7888;46.748;8.102;2023-03-14T11:34:14;92910.00;;;13.60
15575;BMP180;7888;46.748;8.102;2023-03-14T11:36:59;92916.00;;;13.40
15575;BMP180;7888;46.748;8.102;2023-03-14T11:57:21;92958.00;;;13.30
15575;BMP180;7888;46.748;8.102;2023-03-14T12:21:52;92949.00;;;12.70
15575;BMP180;7888;46.748;8.102;2023-03-14T12:24:24;92951.00;;;12.90
15575;BMP180;7888;46.748;8.102;2023-03-14T12:26:56;92950.00;;;12.80
15575;BMP180;7888;46.748;8.102;2023-03-14T12:29:22;92964.00;;;12.90
15575;BMP180;7888;46.748;8.102;2023-03-14T12:32:09;92962.00;;;12.70
15575;BMP180;7888;46.748;8.102;2023-03-14T12:34:41;92988.00;;;12.80
15575;BMP180;7888;46.748;8.102;2023-03-14T12:37:23;93002.00;;;12.80
15575;BMP180;7888;46.748;8.102;2023-03-14T12:40:13;93019.00;;;12.70
15575;BMP180;7888;46.748;8.102;2023-03-14T12:42:57;92982.00;;;12.60
15575;BMP180;7888;46.748;8.102;2023-03-14T12:45:33;93054.00;;;12.60
15575;BMP180;7888;46.748;8.102;2023-03-14T12:50:53;93067.00;;;12.60
15575;BMP180;7888;46.748;8.102;2023-03-14T13:01:29;93096.00;;;12.60
15575;BMP180;7888;46.748;8.102;2023-03-14T13:03:58;93095.00;;;12.50
15575;BMP180;7888;46.748;8.102;2023-03-14T13:07:03;93105.00;;;12.30
15575;BMP180;7888;46.748;8.102;2023-03-14T13:12:00;93136.00;;;12.30
15575;BMP180;7888;46.748;8.102;2023-03-14T13:14:29;93098.00;;;12.40
15575;BMP180;7888;46.748;8.102;2023-03-14T13:16:59;93137.00;;;12.30
15575;BMP180;7888;46.748;8.102;2023-03-14T13:19:31;93131.00;;;12.30
15575;BMP180;7888;46.748;8.102;2023-03-14T13:22:06;93154.00;;;12.30
15575;BMP180;7888;46.748;8.102;2023-03-14T13:24:38;93111.00;;;12.40
15575;BMP180;7888;46.748;8.102;2023-03-14T13:27:04;93153.00;;;12.40
15575;BMP180;7888;46.748;8.102;2023-03-14T13:29:31;93156.00;;;12.40
15575;BMP180;7888;46.748;8.102;2023-03-14T13:32:12;93151.00;;;12.40
15575;BMP180;7888;46.748;8.102;2023-03-14T13:34:38;93166.00;;;12.50
15575;BMP180;7888;46.748;8.102;2023-03-14T13:37:20;93169.00;;;12.50
15575;BMP180;7888;46.748;8.102;2023-03-14T13:39:55;93177.00;;;12.40
15575;BMP180;7888;46.748;8.102;2023-03-14T13:42:26;93175.00;;;12.40
15575;BMP180;7888;46.748;8.102;2023-03-14T13:44:57;93191.00;;;12.30
15575;BMP180;7888;46.748;8.102;2023-03-14T13:47:25;93185.00;;;12.30
15575;BMP180;7888;46.748;8.102;2023-03-14T13:49:53;93175.00;;;12.40
15575;BMP180;7888;46.748;8.102;2023-03-14T13:52:36;93186.00;;;12.30
15575;BMP180;7888;46.748;8.102;2023-03-14T13:55:12;93188.00;;;12.50
15575;BMP180;7888;46.748;8.102;2023-03-14T13:57:53;93182.00;;;12.40
15575;BMP180;7888;46.748;8.102;2023-03-14T14:00:27;93211.00;;;12.50
15575;BMP180;7888;46.748;8.102;2023-03-14T14:02:59;93208.00;;;12.50
15575;BMP180;7888;46.748;8.102;2023-03-14T14:05:29;93189.00;;;12.50
15575;BMP180;7888;46.748;8.102;2023-03-14T14:07:56;93200.00;;;12.60
15575;BMP180;7888;46.748;8.102;2023-03-14T14:10:22;93192.00;;;12.60
15575;BMP180;7888;46.748;8.102;2023-03-14T14:13:02;93202.00;;;12.60
15575;BMP180;7888;46.748;8.102;2023-03-14T14:15:34;93200.00;;;12.70
15575;BMP180;7888;46.748;8.102;2023-03-14T14:18:06;93209.00;;;12.80
15575;BMP180;7888;46.748;8.102;2023-03-14T14:20:41;93208.00;;;12.80
15575;BMP180;7888;46.748;8.102;2023-03-14T14:23:16;93199.00;;;12.80
15575;BMP180;7888;46.748;8.102;2023-03-14T14:25:45;93220.00;;;12.80
15575;BMP180;7888;46.748;8.102;2023-03-14T14:31:23;93221.00;;;12.90
15575;BMP180;7888;46.748;8.102;2023-03-14T14:34:02;93190.00;;;12.90
15575;BMP180;7888;46.748;8.102;2023-03-14T14:36:46;93211.00;;;12.90
15575;BMP180;7888;46.748;8.102;2023-03-14T14:39:24;93218.00;;;13.00
15575;BMP180;7888;46.748;8.102;2023-03-14T14:41:52;93213.00;;;13.00
15575;BMP180;7888;46.748;8.102;2023-03-14T14:44:33;93214.00;;;13.00
15575;BMP180;7888;46.748;8.102;2023-03-14T14:47:03;93208.00;;;13.00
15575;BMP180;7888;46.748;8.102;2023-03-14T14:49:33;93187.00;;;13.00
15575;BMP180;7888;46.748;8.102;2023-03-14T14:54:58;93196.00;;;12.90
15575;BMP180;7888;46.748;8.102;2023-03-14T14:57:36;93186.00;;;12.90
15575;BMP180;7888;46.748;8.102;2023-03-14T15:00:26;93190.00;;;12.90
15575;BMP180;7888;46.748;8.102;2023-03-14T15:02:59;93170.00;;;12.90
15575;BMP180;7888;46.748;8.102;2023-03-14T15:05:27;93181.00;;;13.00
15575;BMP180;7888;46.748;8.102;2023-03-14T15:07:55;93196.00;;;13.00
15575;BMP180;7888;46.748;8.102;2023-03-14T15:10:24;93198.00;;;13.00
15575;BMP180;7888;46.748;8.102;2023-03-14T15:12:50;93195.00;;;13.10
15575;BMP180;7888;46.748;8.102;2023-03-14T15:15:17;93190.00;;;13.10
15575;BMP180;7888;46.748;8.102;2023-03-14T15:17:43;93201.00;;;13.10
15575;BMP180;7888;46.748;8.102;2023-03-14T15:20:15;93197.00;;;13.20
15575;BMP180;7888;46.748;8.102;2023-03-14T15:22:42;93197.00;;;13.10
15575;BMP180;7888;46.748;8.102;2023-03-14T15:25:08;93184.00;;;13.20
15575;BMP180;7888;46.748;8.102;2023-03-14T15:27:36;93178.00;;;13.30
15575;BMP180;7888;46.748;8.102;2023-03-14T15:30:02;93172.00;;;13.40
15575;BMP180;7888;46.748;8.102;2023-03-14T15:32:28;93173.00;;;13.40
15575;BMP180;7888;46.748;8.102;2023-03-14T15:34:57;93172.00;;;13.50
15575;BMP180;7888;46.748;8.102;2023-03-14T15:37:25;93171.00;;;13.50
15575;BMP180;7888;46.748;8.102;2023-03-14T15:39:51;93170.00;;;13.50
15575;BMP180;7888;46.748;8.102;2023-03-14T15:42:16;93159.00;;;13.70
15575;BMP180;7888;46.748;8.102;2023-03-14T15:44:42;93120.00;;;13.80
15575;BMP180;7888;46.748;8.102;2023-03-14T15:47:10;93177.00;;;13.80
15575;BMP180;7888;46.748;8.102;2023-03-14T15:49:36;93142.00;;;13.90
15575;BMP180;7888;46.748;8.102;2023-03-14T15:52:02;93158.00;;;14.00
15575;BMP180;7888;46.748;8.102;2023-03-14T15:54:28;93159.00;;;14.00
15575;BMP180;7888;46.748;8.102;2023-03-14T15:56:55;93169.00;;;14.00
15575;BMP180;7888;46.748;8.102;2023-03-14T15:59:23;93175.00;;;14.00
15575;BMP180;7888;46.748;8.102;2023-03-14T16:01:49;93162.00;;;14.00